sensor_id;sensor_type;location;lat;lon;timestamp;P1;durP1;ratioP1;P2;durP2;ratioP2
63690;SDS011;49837;57.280;27.070;2024-02-15T00:00:54;7.2;;;3.4;;
63690;SDS011;49837;57.280;27.070;2024-02-15T00:01:55;7.4;;;3.6;;
63690;SDS011;49837;57.280;27.070;2024-02-15T00:02:55;7.9;;;3.7;;
63690;SDS011;49837;57.280;27.070;2024-02-15T00:03:55;8.1;;;3.5;;
63690;SDS011;49837;57.280;27.070;2024-02-15T00:04:56;11.6;;;3.8;;
63690;SDS011;49837;57.280;27.070;2024-02-15T00:05:57;9.0;;;3.6;;
63690;SDS011;49837;57.280;27.070;2024-02-15T00:06:57;8.6;;;3.9;;
63690;SDS011;49837;57.280;27.070;2024-02-15T00:07:57;7.8;;;3.5;;
63690;SDS011;49837;57.280;27.070;2024-02-15T00:08:57;8.5;;;4.1;;
63690;SDS011;49837;57.280;27.070;2024-02-15T00:09:58;8.2;;;3.6;;
63690;SDS011;49837;57.280;27.070;2024-02-15T00:10:58;7.9;;;3.8;;
63690;SDS011;49837;57.280;27.070;2024-02-15T00:11:58;8.3;;;3.6;;
63690;SDS011;49837;57.280;27.070;2024-02-15T00:12:59;8.4;;;3.8;;
63690;SDS011;49837;57.280;27.070;2024-02-15T00:13:59;9.2;;;3.5;;
63690;SDS011;49837;57.280;27.070;2024-02-15T00:14:59;7.7;;;3.8;;
63690;SDS011;49837;57.280;27.070;2024-02-15T00:16:00;6.7;;;3.5;;
63690;SDS011;49837;57.280;27.070;2024-02-15T00:17:00;9.1;;;3.8;;
63690;SDS011;49837;57.280;27.070;2024-02-15T00:18:00;9.3;;;3.7;;
63690;SDS011;49837;57.280;27.070;2024-02-15T00:19:01;7.3;;;3.9;;
63690;SDS011;49837;57.280;27.070;2024-02-15T00:20:02;7.4;;;3.8;;
63690;SDS011;49837;57.280;27.070;2024-02-15T00:21:02;8.9;;;4.0;;
63690;SDS011;49837;57.280;27.070;2024-02-15T00:22:02;8.1;;;3.9;;
63690;SDS011;49837;57.280;27.070;2024-02-15T00:23:02;5.7;;;3.4;;
63690;SDS011;49837;57.280;27.070;2024-02-15T00:24:03;6.5;;;3.8;;
63690;SDS011;49837;57.280;27.070;2024-02-15T00:25:03;9.1;;;4.1;;
63690;SDS011;49837;57.280;27.070;2024-02-15T00:26:03;7.4;;;3.6;;
63690;SDS011;49837;57.280;27.070;2024-02-15T00:27:04;6.2;;;3.4;;
63690;SDS011;49837;57.280;27.070;2024-02-15T00:28:04;8.4;;;4.3;;
63690;SDS011;49837;57.280;27.070;2024-02-15T00:29:04;8.0;;;3.9;;
63690;SDS011;49837;57.280;27.070;2024-02-15T00:30:05;7.6;;;4.1;;
63690;SDS011;49837;57.280;27.070;2024-02-15T00:31:05;6.8;;;3.8;;
63690;SDS011;49837;57.280;27.070;2024-02-15T00:32:05;7.2;;;3.9;;
63690;SDS011;49837;57.280;27.070;2024-02-15T00:33:06;7.3;;;3.9;;
63690;SDS011;49837;57.280;27.070;2024-02-15T00:34:06;7.6;;;3.7;;
63690;SDS011;49837;57.280;27.070;2024-02-15T00:35:06;5.7;;;3.3;;
63690;SDS011;49837;57.280;27.070;2024-02-15T00:36:07;7.4;;;3.3;;
63690;SDS011;49837;57.280;27.070;2024-02-15T00:37:07;6.7;;;3.3;;
63690;SDS011;49837;57.280;27.070;2024-02-15T00:38:07;5.2;;;3.4;;
63690;SDS011;49837;57.280;27.070;2024-02-15T00:39:08;6.5;;;3.3;;
63690;SDS011;49837;57.280;27.070;2024-02-15T00:40:08;6.7;;;3.3;;
63690;SDS011;49837;57.280;27.070;2024-02-15T00:41:08;7.3;;;3.4;;
63690;SDS011;49837;57.280;27.070;2024-02-15T00:42:09;6.5;;;3.6;;
63690;SDS011;49837;57.280;27.070;2024-02-15T00:43:09;6.5;;;3.3;;
63690;SDS011;49837;57.280;27.070;2024-02-15T00:44:09;6.2;;;3.5;;
63690;SDS011;49837;57.280;27.070;2024-02-15T00:45:10;6.2;;;3.5;;
63690;SDS011;49837;57.280;27.070;2024-02-15T00:46:10;6.4;;;3.8;;
63690;SDS011;49837;57.280;27.070;2024-02-15T00:47:10;6.5;;;3.5;;
63690;SDS011;49837;57.280;27.070;2024-02-15T00:48:11;6.7;;;3.6;;
63690;SDS011;49837;57.280;27.070;2024-02-15T00:49:11;7.3;;;3.6;;
63690;SDS011;49837;57.280;27.070;2024-02-15T00:50:11;8.8;;;3.6;;
63690;SDS011;49837;57.280;27.070;2024-02-15T00:51:12;5.8;;;3.5;;
63690;SDS011;49837;57.280;27.070;2024-02-15T00:52:12;7.4;;;3.9;;
63690;SDS011;49837;57.280;27.070;2024-02-15T00:53:13;6.4;;;3.4;;
63690;SDS011;49837;57.280;27.070;2024-02-15T00:54:13;6.6;;;3.7;;
63690;SDS011;49837;57.280;27.070;2024-02-15T00:55:13;6.1;;;3.4;;
63690;SDS011;49837;57.280;27.070;2024-02-15T00:56:14;6.0;;;3.9;;
63690;SDS011;49837;57.280;27.070;2024-02-15T00:57:14;7.8;;;3.9;;
63690;SDS011;49837;57.280;27.070;2024-02-15T00:58:14;6.6;;;3.8;;
63690;SDS011;49837;57.280;27.070;2024-02-15T00:59:15;6.2;;;3.4;;
63690;SDS011;49837;57.280;27.070;2024-02-15T01:00:15;6.5;;;3.5;;
63690;SDS011;49837;57.280;27.070;2024-02-15T01:01:15;8.5;;;4.3;;
63690;SDS011;49837;57.280;27.070;2024-02-15T01:02:16;7.3;;;3.8;;
63690;SDS011;49837;57.280;27.070;2024-02-15T01:03:16;7.3;;;3.6;;
63690;SDS011;49837;57.280;27.070;2024-02-15T01:04:16;6.2;;;3.8;;
63690;SDS011;49837;57.280;27.070;2024-02-15T01:05:17;7.1;;;3.7;;
63690;SDS011;49837;57.280;27.070;2024-02-15T01:06:17;6.6;;;3.6;;
63690;SDS011;49837;57.280;27.070;2024-02-15T01:07:17;7.4;;;3.8;;
63690;SDS011;49837;57.280;27.070;2024-02-15T01:08:18;7.9;;;3.6;;
63690;SDS011;49837;57.280;27.070;2024-02-15T01:09:18;8.0;;;3.4;;
63690;SDS011;49837;57.280;27.070;2024-02-15T01:10:18;6.1;;;3.7;;
63690;SDS011;49837;57.280;27.070;2024-02-15T01:11:19;10.2;;;3.9;;
63690;SDS011;49837;57.280;27.070;2024-02-15T01:12:19;7.5;;;4.0;;
63690;SDS011;49837;57.280;27.070;2024-02-15T01:13:19;7.0;;;3.7;;
63690;SDS011;49837;57.280;27.070;2024-02-15T01:14:20;6.1;;;3.9;;
63690;SDS011;49837;57.280;27.070;2024-02-15T01:15:20;6.2;;;3.7;;
63690;SDS011;49837;57.280;27.070;2024-02-15T01:16:20;18.2;;;10.5;;
63690;SDS011;49837;57.280;27.070;2024-02-15T01:17:21;42.4;;;25.2;;
63690;SDS011;49837;57.280;27.070;2024-02-15T01:18:21;30.0;;;17.4;;
63690;SDS011;49837;57.280;27.070;2024-02-15T01:19:22;13.9;;;7.7;;
63690;SDS011;49837;57.280;27.070;2024-02-15T01:20:22;10.5;;;5.6;;
63690;SDS011;49837;57.280;27.070;2024-02-15T01:21:22;7.6;;;4.4;;
63690;SDS011;49837;57.280;27.070;2024-02-15T01:22:22;9.8;;;6.2;;
63690;SDS011;49837;57.280;27.070;2024-02-15T01:23:23;8.2;;;4.6;;
63690;SDS011;49837;57.280;27.070;2024-02-15T01:24:23;6.5;;;4.1;;
63690;SDS011;49837;57.280;27.070;2024-02-15T01:25:24;7.2;;;4.0;;
63690;SDS011;49837;57.280;27.070;2024-02-15T01:26:24;8.2;;;4.1;;
63690;SDS011;49837;57.280;27.070;2024-02-15T01:27:24;8.7;;;4.5;;
63690;SDS011;49837;57.280;27.070;2024-02-15T01:28:25;7.8;;;4.3;;
63690;SDS011;49837;57.280;27.070;2024-02-15T01:29:25;8.2;;;4.5;;
63690;SDS011;49837;57.280;27.070;2024-02-15T01:30:25;7.7;;;4.1;;
63690;SDS011;49837;57.280;27.070;2024-02-15T01:31:26;8.7;;;4.4;;
63690;SDS011;49837;57.280;27.070;2024-02-15T01:32:26;12.8;;;6.3;;
63690;SDS011;49837;57.280;27.070;2024-02-15T01:33:26;9.6;;;4.9;;
63690;SDS011;49837;57.280;27.070;2024-02-15T01:34:27;27.8;;;25.4;;
63690;SDS011;49837;57.280;27.070;2024-02-15T01:35:27;8.0;;;5.6;;
63690;SDS011;49837;57.280;27.070;2024-02-15T01:36:27;10.4;;;9.4;;
63690;SDS011;49837;57.280;27.070;2024-02-15T01:37:28;9.2;;;4.2;;
63690;SDS011;49837;57.280;27.070;2024-02-15T01:38:28;7.0;;;3.9;;
63690;SDS011;49837;57.280;27.070;2024-02-15T01:39:28;7.9;;;6.1;;
63690;SDS011;49837;57.280;27.070;2024-02-15T01:40:29;10.2;;;8.6;;
63690;SDS011;49837;57.280;27.070;2024-02-15T01:41:29;9.9;;;8.1;;
63690;SDS011;49837;57.280;27.070;2024-02-15T01:42:29;8.5;;;7.0;;
63690;SDS011;49837;57.280;27.070;2024-02-15T01:43:30;8.9;;;5.5;;
63690;SDS011;49837;57.280;27.070;2024-02-15T01:44:30;8.2;;;5.7;;
63690;SDS011;49837;57.280;27.070;2024-02-15T01:45:30;13.3;;;12.0;;
63690;SDS011;49837;57.280;27.070;2024-02-15T01:46:31;8.6;;;5.3;;
63690;SDS011;49837;57.280;27.070;2024-02-15T01:47:31;7.5;;;5.0;;
63690;SDS011;49837;57.280;27.070;2024-02-15T01:48:31;9.8;;;4.8;;
63690;SDS011;49837;57.280;27.070;2024-02-15T01:49:32;7.2;;;4.6;;
63690;SDS011;49837;57.280;27.070;2024-02-15T01:50:32;9.1;;;5.0;;
63690;SDS011;49837;57.280;27.070;2024-02-15T01:51:33;8.7;;;4.9;;
63690;SDS011;49837;57.280;27.070;2024-02-15T01:52:33;6.6;;;3.8;;
63690;SDS011;49837;57.280;27.070;2024-02-15T01:53:33;7.2;;;3.8;;
63690;SDS011;49837;57.280;27.070;2024-02-15T01:54:34;7.8;;;3.4;;
63690;SDS011;49837;57.280;27.070;2024-02-15T01:55:34;8.4;;;3.8;;
63690;SDS011;49837;57.280;27.070;2024-02-15T01:56:34;8.2;;;4.1;;
63690;SDS011;49837;57.280;27.070;2024-02-15T01:57:35;11.4;;;4.3;;
63690;SDS011;49837;57.280;27.070;2024-02-15T01:58:35;8.0;;;4.8;;
63690;SDS011;49837;57.280;27.070;2024-02-15T01:59:35;8.5;;;5.3;;
63690;SDS011;49837;57.280;27.070;2024-02-15T02:00:36;13.2;;;6.8;;
63690;SDS011;49837;57.280;27.070;2024-02-15T02:01:36;14.4;;;5.6;;
63690;SDS011;49837;57.280;27.070;2024-02-15T02:02:36;8.8;;;4.4;;
63690;SDS011;49837;57.280;27.070;2024-02-15T02:03:39;7.5;;;4.1;;
63690;SDS011;49837;57.280;27.070;2024-02-15T02:04:39;8.7;;;4.5;;
63690;SDS011;49837;57.280;27.070;2024-02-15T02:05:40;11.8;;;4.7;;
63690;SDS011;49837;57.280;27.070;2024-02-15T02:06:39;9.9;;;5.3;;
63690;SDS011;49837;57.280;27.070;2024-02-15T02:07:40;9.7;;;5.9;;
63690;SDS011;49837;57.280;27.070;2024-02-15T02:08:40;9.2;;;5.0;;
63690;SDS011;49837;57.280;27.070;2024-02-15T02:09:41;9.1;;;4.6;;
63690;SDS011;49837;57.280;27.070;2024-02-15T02:10:41;7.6;;;4.9;;
63690;SDS011;49837;57.280;27.070;2024-02-15T02:11:41;10.0;;;5.6;;
63690;SDS011;49837;57.280;27.070;2024-02-15T02:12:43;9.4;;;7.4;;
63690;SDS011;49837;57.280;27.070;2024-02-15T02:13:43;7.5;;;5.5;;
63690;SDS011;49837;57.280;27.070;2024-02-15T02:14:44;7.5;;;4.3;;
63690;SDS011;49837;57.280;27.070;2024-02-15T02:15:44;8.4;;;5.1;;
63690;SDS011;49837;57.280;27.070;2024-02-15T02:16:44;12.4;;;8.8;;
63690;SDS011;49837;57.280;27.070;2024-02-15T02:17:51;8.2;;;5.1;;
63690;SDS011;49837;57.280;27.070;2024-02-15T02:18:48;8.2;;;4.3;;
63690;SDS011;49837;57.280;27.070;2024-02-15T02:19:49;8.2;;;4.9;;
63690;SDS011;49837;57.280;27.070;2024-02-15T02:20:49;8.8;;;6.2;;
63690;SDS011;49837;57.280;27.070;2024-02-15T02:21:49;9.3;;;5.9;;
63690;SDS011;49837;57.280;27.070;2024-02-15T02:22:50;8.0;;;4.5;;
63690;SDS011;49837;57.280;27.070;2024-02-15T02:23:52;7.0;;;4.6;;
63690;SDS011;49837;57.280;27.070;2024-02-15T02:25:06;7.1;;;4.2;;
63690;SDS011;49837;57.280;27.070;2024-02-15T02:25:54;5.9;;;3.4;;
63690;SDS011;49837;57.280;27.070;2024-02-15T02:26:54;7.2;;;4.0;;
63690;SDS011;49837;57.280;27.070;2024-02-15T02:27:54;9.0;;;5.0;;
63690;SDS011;49837;57.280;27.070;2024-02-15T02:28:54;7.9;;;4.8;;
63690;SDS011;49837;57.280;27.070;2024-02-15T02:29:55;8.7;;;3.8;;
63690;SDS011;49837;57.280;27.070;2024-02-15T02:30:55;5.7;;;3.6;;
63690;SDS011;49837;57.280;27.070;2024-02-15T02:31:56;5.7;;;3.2;;
63690;SDS011;49837;57.280;27.070;2024-02-15T02:32:56;6.5;;;3.9;;
63690;SDS011;49837;57.280;27.070;2024-02-15T02:33:56;5.8;;;3.4;;
63690;SDS011;49837;57.280;27.070;2024-02-15T02:34:56;7.9;;;3.6;;
63690;SDS011;49837;57.280;27.070;2024-02-15T02:35:57;6.8;;;3.6;;
63690;SDS011;49837;57.280;27.070;2024-02-15T02:36:57;7.3;;;4.6;;
63690;SDS011;49837;57.280;27.070;2024-02-15T02:37:58;6.7;;;4.1;;
63690;SDS011;49837;57.280;27.070;2024-02-15T02:38:58;6.7;;;3.7;;
63690;SDS011;49837;57.280;27.070;2024-02-15T02:39:58;5.4;;;3.1;;
63690;SDS011;49837;57.280;27.070;2024-02-15T02:40:58;5.6;;;3.2;;
63690;SDS011;49837;57.280;27.070;2024-02-15T02:41:59;5.8;;;3.1;;
63690;SDS011;49837;57.280;27.070;2024-02-15T02:42:59;7.3;;;3.2;;
63690;SDS011;49837;57.280;27.070;2024-02-15T02:43:59;6.2;;;3.6;;
63690;SDS011;49837;57.280;27.070;2024-02-15T02:45:00;6.9;;;3.6;;
63690;SDS011;49837;57.280;27.070;2024-02-15T02:46:00;6.7;;;3.7;;
63690;SDS011;49837;57.280;27.070;2024-02-15T02:47:01;7.8;;;3.6;;
63690;SDS011;49837;57.280;27.070;2024-02-15T02:48:01;6.6;;;4.1;;
63690;SDS011;49837;57.280;27.070;2024-02-15T02:49:01;7.1;;;3.9;;
63690;SDS011;49837;57.280;27.070;2024-02-15T02:50:02;6.9;;;3.8;;
63690;SDS011;49837;57.280;27.070;2024-02-15T02:51:02;9.6;;;3.8;;
63690;SDS011;49837;57.280;27.070;2024-02-15T02:52:03;7.8;;;3.8;;
63690;SDS011;49837;57.280;27.070;2024-02-15T02:53:03;7.0;;;3.8;;
63690;SDS011;49837;57.280;27.070;2024-02-15T02:54:03;5.9;;;3.7;;
63690;SDS011;49837;57.280;27.070;2024-02-15T02:55:03;7.2;;;4.0;;
63690;SDS011;49837;57.280;27.070;2024-02-15T02:56:04;6.2;;;3.6;;
63690;SDS011;49837;57.280;27.070;2024-02-15T02:57:04;8.2;;;3.9;;
63690;SDS011;49837;57.280;27.070;2024-02-15T02:58:04;7.2;;;3.7;;
63690;SDS011;49837;57.280;27.070;2024-02-15T02:59:05;9.3;;;4.3;;
63690;SDS011;49837;57.280;27.070;2024-02-15T03:00:06;8.3;;;3.9;;
63690;SDS011;49837;57.280;27.070;2024-02-15T03:01:05;6.9;;;5.0;;
63690;SDS011;49837;57.280;27.070;2024-02-15T03:02:06;8.2;;;7.1;;
63690;SDS011;49837;57.280;27.070;2024-02-15T03:03:06;10.7;;;5.6;;
63690;SDS011;49837;57.280;27.070;2024-02-15T03:04:06;10.1;;;4.6;;
63690;SDS011;49837;57.280;27.070;2024-02-15T03:05:07;7.9;;;3.9;;
63690;SDS011;49837;57.280;27.070;2024-02-15T03:06:08;7.8;;;4.1;;
63690;SDS011;49837;57.280;27.070;2024-02-15T03:07:07;8.2;;;4.2;;
63690;SDS011;49837;57.280;27.070;2024-02-15T03:08:08;7.9;;;4.4;;
63690;SDS011;49837;57.280;27.070;2024-02-15T03:09:08;7.7;;;3.9;;
63690;SDS011;49837;57.280;27.070;2024-02-15T03:10:09;7.6;;;4.2;;
63690;SDS011;49837;57.280;27.070;2024-02-15T03:11:09;6.7;;;4.0;;
63690;SDS011;49837;57.280;27.070;2024-02-15T03:12:09;7.2;;;3.9;;
63690;SDS011;49837;57.280;27.070;2024-02-15T03:13:09;6.3;;;3.7;;
63690;SDS011;49837;57.280;27.070;2024-02-15T03:14:10;7.5;;;3.9;;
63690;SDS011;49837;57.280;27.070;2024-02-15T03:15:10;6.8;;;4.3;;
63690;SDS011;49837;57.280;27.070;2024-02-15T03:16:10;7.0;;;4.1;;
63690;SDS011;49837;57.280;27.070;2024-02-15T03:17:11;7.2;;;4.2;;
63690;SDS011;49837;57.280;27.070;2024-02-15T03:18:11;8.3;;;5.1;;
63690;SDS011;49837;57.280;27.070;2024-02-15T03:19:12;10.5;;;5.6;;
63690;SDS011;49837;57.280;27.070;2024-02-15T03:20:12;9.6;;;5.2;;
63690;SDS011;49837;57.280;27.070;2024-02-15T03:21:12;8.4;;;4.9;;
63690;SDS011;49837;57.280;27.070;2024-02-15T03:22:13;8.9;;;4.6;;
63690;SDS011;49837;57.280;27.070;2024-02-15T03:23:13;9.3;;;7.1;;
63690;SDS011;49837;57.280;27.070;2024-02-15T03:24:13;8.2;;;5.5;;
63690;SDS011;49837;57.280;27.070;2024-02-15T03:25:13;8.1;;;6.2;;
63690;SDS011;49837;57.280;27.070;2024-02-15T03:26:14;8.3;;;6.0;;
63690;SDS011;49837;57.280;27.070;2024-02-15T03:27:14;7.8;;;5.3;;
63690;SDS011;49837;57.280;27.070;2024-02-15T03:28:15;9.1;;;5.3;;
63690;SDS011;49837;57.280;27.070;2024-02-15T03:29:15;7.5;;;5.6;;
63690;SDS011;49837;57.280;27.070;2024-02-15T03:30:15;7.9;;;5.1;;
63690;SDS011;49837;57.280;27.070;2024-02-15T03:31:16;8.7;;;5.1;;
63690;SDS011;49837;57.280;27.070;2024-02-15T03:32:16;8.5;;;5.0;;
63690;SDS011;49837;57.280;27.070;2024-02-15T03:33:16;6.6;;;4.4;;
63690;SDS011;49837;57.280;27.070;2024-02-15T03:34:17;7.2;;;4.4;;
63690;SDS011;49837;57.280;27.070;2024-02-15T03:35:17;7.8;;;4.4;;
63690;SDS011;49837;57.280;27.070;2024-02-15T03:36:17;8.8;;;4.3;;
63690;SDS011;49837;57.280;27.070;2024-02-15T03:37:18;7.7;;;4.5;;
63690;SDS011;49837;57.280;27.070;2024-02-15T03:38:18;8.0;;;4.4;;
63690;SDS011;49837;57.280;27.070;2024-02-15T03:39:18;8.2;;;4.3;;
63690;SDS011;49837;57.280;27.070;2024-02-15T03:40:19;7.9;;;4.6;;
63690;SDS011;49837;57.280;27.070;2024-02-15T03:41:19;9.2;;;4.7;;
63690;SDS011;49837;57.280;27.070;2024-02-15T03:42:19;9.5;;;5.1;;
63690;SDS011;49837;57.280;27.070;2024-02-15T03:43:20;8.2;;;4.6;;
63690;SDS011;49837;57.280;27.070;2024-02-15T03:44:20;8.2;;;4.5;;
63690;SDS011;49837;57.280;27.070;2024-02-15T03:45:20;9.1;;;4.6;;
63690;SDS011;49837;57.280;27.070;2024-02-15T03:46:21;9.3;;;4.9;;
63690;SDS011;49837;57.280;27.070;2024-02-15T03:47:21;9.9;;;4.6;;
63690;SDS011;49837;57.280;27.070;2024-02-15T03:48:21;8.3;;;4.7;;
63690;SDS011;49837;57.280;27.070;2024-02-15T03:49:22;8.8;;;5.1;;
63690;SDS011;49837;57.280;27.070;2024-02-15T03:50:22;9.4;;;5.2;;
63690;SDS011;49837;57.280;27.070;2024-02-15T03:51:22;9.1;;;5.1;;
63690;SDS011;49837;57.280;27.070;2024-02-15T03:52:23;9.3;;;5.3;;
63690;SDS011;49837;57.280;27.070;2024-02-15T03:53:23;8.1;;;4.9;;
63690;SDS011;49837;57.280;27.070;2024-02-15T03:54:24;9.3;;;5.1;;
63690;SDS011;49837;57.280;27.070;2024-02-15T03:55:24;9.0;;;5.1;;
63690;SDS011;49837;57.280;27.070;2024-02-15T03:56:24;9.0;;;4.9;;
63690;SDS011;49837;57.280;27.070;2024-02-15T03:57:28;12.0;;;4.9;;
63690;SDS011;49837;57.280;27.070;2024-02-15T03:58:25;9.0;;;4.8;;
63690;SDS011;49837;57.280;27.070;2024-02-15T03:59:25;7.9;;;5.2;;
63690;SDS011;49837;57.280;27.070;2024-02-15T04:00:26;11.3;;;5.0;;
63690;SDS011;49837;57.280;27.070;2024-02-15T04:01:26;9.1;;;4.8;;
63690;SDS011;49837;57.280;27.070;2024-02-15T04:02:27;8.6;;;4.9;;
63690;SDS011;49837;57.280;27.070;2024-02-15T04:03:27;7.8;;;4.9;;
63690;SDS011;49837;57.280;27.070;2024-02-15T04:04:27;12.0;;;5.2;;
63690;SDS011;49837;57.280;27.070;2024-02-15T04:05:27;10.6;;;5.3;;
63690;SDS011;49837;57.280;27.070;2024-02-15T04:06:28;11.2;;;5.8;;
63690;SDS011;49837;57.280;27.070;2024-02-15T04:07:28;8.5;;;5.3;;
63690;SDS011;49837;57.280;27.070;2024-02-15T04:08:29;9.9;;;5.1;;
63690;SDS011;49837;57.280;27.070;2024-02-15T04:09:29;16.7;;;5.8;;
63690;SDS011;49837;57.280;27.070;2024-02-15T04:10:29;10.8;;;5.6;;
63690;SDS011;49837;57.280;27.070;2024-02-15T04:11:30;9.4;;;5.1;;
63690;SDS011;49837;57.280;27.070;2024-02-15T04:12:30;9.7;;;5.4;;
63690;SDS011;49837;57.280;27.070;2024-02-15T04:13:30;8.5;;;5.6;;
63690;SDS011;49837;57.280;27.070;2024-02-15T04:14:32;9.7;;;5.4;;
63690;SDS011;49837;57.280;27.070;2024-02-15T04:15:31;9.5;;;5.3;;
63690;SDS011;49837;57.280;27.070;2024-02-15T04:16:31;10.7;;;5.2;;
63690;SDS011;49837;57.280;27.070;2024-02-15T04:17:34;12.0;;;5.4;;
63690;SDS011;49837;57.280;27.070;2024-02-15T04:18:34;12.6;;;5.3;;
63690;SDS011;49837;57.280;27.070;2024-02-15T04:19:34;10.2;;;5.4;;
63690;SDS011;49837;57.280;27.070;2024-02-15T04:20:35;8.6;;;5.6;;
63690;SDS011;49837;57.280;27.070;2024-02-15T04:21:35;10.9;;;6.1;;
63690;SDS011;49837;57.280;27.070;2024-02-15T04:22:35;12.4;;;6.5;;
63690;SDS011;49837;57.280;27.070;2024-02-15T04:23:36;15.0;;;8.0;;
63690;SDS011;49837;57.280;27.070;2024-02-15T04:24:36;11.9;;;6.3;;
63690;SDS011;49837;57.280;27.070;2024-02-15T04:25:36;13.5;;;6.2;;
63690;SDS011;49837;57.280;27.070;2024-02-15T04:26:37;9.6;;;5.5;;
63690;SDS011;49837;57.280;27.070;2024-02-15T04:27:37;9.7;;;5.6;;
63690;SDS011;49837;57.280;27.070;2024-02-15T04:28:37;10.2;;;5.4;;
63690;SDS011;49837;57.280;27.070;2024-02-15T04:29:38;10.5;;;5.6;;
63690;SDS011;49837;57.280;27.070;2024-02-15T04:30:38;12.0;;;5.9;;
63690;SDS011;49837;57.280;27.070;2024-02-15T04:31:38;10.1;;;5.9;;
63690;SDS011;49837;57.280;27.070;2024-02-15T04:32:39;10.2;;;5.6;;
63690;SDS011;49837;57.280;27.070;2024-02-15T04:33:39;11.1;;;5.9;;
63690;SDS011;49837;57.280;27.070;2024-02-15T04:34:39;10.9;;;5.8;;
63690;SDS011;49837;57.280;27.070;2024-02-15T04:35:40;9.9;;;6.1;;
63690;SDS011;49837;57.280;27.070;2024-02-15T04:36:40;11.1;;;6.5;;
63690;SDS011;49837;57.280;27.070;2024-02-15T04:37:41;11.4;;;6.4;;
63690;SDS011;49837;57.280;27.070;2024-02-15T04:38:41;10.9;;;5.7;;
63690;SDS011;49837;57.280;27.070;2024-02-15T04:39:41;11.1;;;5.7;;
63690;SDS011;49837;57.280;27.070;2024-02-15T04:40:41;9.9;;;5.1;;
63690;SDS011;49837;57.280;27.070;2024-02-15T04:41:42;13.9;;;5.6;;
63690;SDS011;49837;57.280;27.070;2024-02-15T04:42:42;9.6;;;6.1;;
63690;SDS011;49837;57.280;27.070;2024-02-15T04:43:43;31.8;;;15.8;;
63690;SDS011;49837;57.280;27.070;2024-02-15T04:44:43;65.1;;;33.9;;
63690;SDS011;49837;57.280;27.070;2024-02-15T04:45:43;45.9;;;23.3;;
63690;SDS011;49837;57.280;27.070;2024-02-15T04:46:44;67.1;;;32.7;;
63690;SDS011;49837;57.280;27.070;2024-02-15T04:47:44;53.4;;;26.0;;
63690;SDS011;49837;57.280;27.070;2024-02-15T04:48:44;71.0;;;30.5;;
63690;SDS011;49837;57.280;27.070;2024-02-15T04:49:45;45.2;;;22.4;;
63690;SDS011;49837;57.280;27.070;2024-02-15T04:50:45;54.1;;;25.5;;
63690;SDS011;49837;57.280;27.070;2024-02-15T04:51:45;34.2;;;17.4;;
63690;SDS011;49837;57.280;27.070;2024-02-15T04:52:46;25.9;;;14.1;;
63690;SDS011;49837;57.280;27.070;2024-02-15T04:53:46;15.6;;;8.5;;
63690;SDS011;49837;57.280;27.070;2024-02-15T04:54:46;11.8;;;6.0;;
63690;SDS011;49837;57.280;27.070;2024-02-15T04:55:47;8.7;;;5.1;;
63690;SDS011;49837;57.280;27.070;2024-02-15T04:56:47;10.5;;;5.5;;
63690;SDS011;49837;57.280;27.070;2024-02-15T04:57:47;9.7;;;5.0;;
63690;SDS011;49837;57.280;27.070;2024-02-15T04:58:48;11.3;;;5.3;;
63690;SDS011;49837;57.280;27.070;2024-02-15T04:59:48;12.0;;;6.0;;
63690;SDS011;49837;57.280;27.070;2024-02-15T05:00:48;11.6;;;5.2;;
63690;SDS011;49837;57.280;27.070;2024-02-15T05:01:49;9.9;;;5.8;;
63690;SDS011;49837;57.280;27.070;2024-02-15T05:02:49;9.0;;;5.5;;
63690;SDS011;49837;57.280;27.070;2024-02-15T05:03:49;10.1;;;5.8;;
63690;SDS011;49837;57.280;27.070;2024-02-15T05:04:50;9.8;;;5.4;;
63690;SDS011;49837;57.280;27.070;2024-02-15T05:05:50;9.9;;;5.6;;
63690;SDS011;49837;57.280;27.070;2024-02-15T05:06:51;10.1;;;5.2;;
63690;SDS011;49837;57.280;27.070;2024-02-15T05:07:51;9.4;;;5.5;;
63690;SDS011;49837;57.280;27.070;2024-02-15T05:08:51;10.6;;;5.8;;
63690;SDS011;49837;57.280;27.070;2024-02-15T05:09:51;10.7;;;5.8;;
63690;SDS011;49837;57.280;27.070;2024-02-15T05:10:52;10.1;;;6.0;;
63690;SDS011;49837;57.280;27.070;2024-02-15T05:11:52;11.4;;;6.5;;
63690;SDS011;49837;57.280;27.070;2024-02-15T05:12:52;12.1;;;6.9;;
63690;SDS011;49837;57.280;27.070;2024-02-15T05:13:53;10.9;;;6.7;;
63690;SDS011;49837;57.280;27.070;2024-02-15T05:14:53;9.9;;;5.5;;
63690;SDS011;49837;57.280;27.070;2024-02-15T05:15:53;10.7;;;6.1;;
63690;SDS011;49837;57.280;27.070;2024-02-15T05:16:54;11.4;;;6.9;;
63690;SDS011;49837;57.280;27.070;2024-02-15T05:17:54;12.8;;;7.2;;
63690;SDS011;49837;57.280;27.070;2024-02-15T05:18:54;12.5;;;7.2;;
63690;SDS011;49837;57.280;27.070;2024-02-15T05:19:55;10.5;;;6.4;;
63690;SDS011;49837;57.280;27.070;2024-02-15T05:20:55;8.5;;;5.6;;
63690;SDS011;49837;57.280;27.070;2024-02-15T05:21:56;10.0;;;5.9;;
63690;SDS011;49837;57.280;27.070;2024-02-15T05:22:56;8.6;;;5.4;;
63690;SDS011;49837;57.280;27.070;2024-02-15T05:23:56;8.7;;;5.8;;
63690;SDS011;49837;57.280;27.070;2024-02-15T05:24:57;8.9;;;5.1;;
63690;SDS011;49837;57.280;27.070;2024-02-15T05:25:57;10.3;;;5.2;;
63690;SDS011;49837;57.280;27.070;2024-02-15T05:26:57;11.0;;;5.2;;
63690;SDS011;49837;57.280;27.070;2024-02-15T05:27:58;9.9;;;5.4;;
63690;SDS011;49837;57.280;27.070;2024-02-15T05:28:58;8.4;;;5.3;;
63690;SDS011;49837;57.280;27.070;2024-02-15T05:29:58;10.9;;;5.6;;
63690;SDS011;49837;57.280;27.070;2024-02-15T05:31:11;9.3;;;5.6;;
63690;SDS011;49837;57.280;27.070;2024-02-15T05:32:02;10.9;;;6.5;;
63690;SDS011;49837;57.280;27.070;2024-02-15T05:33:03;9.7;;;6.4;;
63690;SDS011;49837;57.280;27.070;2024-02-15T05:34:03;8.5;;;5.4;;
63690;SDS011;49837;57.280;27.070;2024-02-15T05:35:03;13.0;;;7.6;;
63690;SDS011;49837;57.280;27.070;2024-02-15T05:36:04;19.0;;;10.2;;
63690;SDS011;49837;57.280;27.070;2024-02-15T05:37:04;9.9;;;5.9;;
63690;SDS011;49837;57.280;27.070;2024-02-15T05:38:04;16.4;;;8.3;;
63690;SDS011;49837;57.280;27.070;2024-02-15T05:39:04;16.3;;;8.2;;
63690;SDS011;49837;57.280;27.070;2024-02-15T05:40:05;14.0;;;7.5;;
63690;SDS011;49837;57.280;27.070;2024-02-15T05:41:05;13.0;;;7.2;;
63690;SDS011;49837;57.280;27.070;2024-02-15T05:42:06;15.3;;;9.1;;
63690;SDS011;49837;57.280;27.070;2024-02-15T05:43:06;13.4;;;9.1;;
63690;SDS011;49837;57.280;27.070;2024-02-15T05:44:06;12.4;;;6.8;;
63690;SDS011;49837;57.280;27.070;2024-02-15T05:45:27;12.1;;;6.7;;
63690;SDS011;49837;57.280;27.070;2024-02-15T05:46:10;8.2;;;5.0;;
63690;SDS011;49837;57.280;27.070;2024-02-15T05:47:10;9.5;;;4.7;;
63690;SDS011;49837;57.280;27.070;2024-02-15T05:48:10;8.2;;;4.7;;
63690;SDS011;49837;57.280;27.070;2024-02-15T05:49:11;10.3;;;5.1;;
63690;SDS011;49837;57.280;27.070;2024-02-15T05:50:11;9.1;;;4.6;;
63690;SDS011;49837;57.280;27.070;2024-02-15T05:51:11;11.8;;;5.4;;
63690;SDS011;49837;57.280;27.070;2024-02-15T05:52:12;7.8;;;5.3;;
63690;SDS011;49837;57.280;27.070;2024-02-15T05:53:12;9.7;;;5.4;;
63690;SDS011;49837;57.280;27.070;2024-02-15T05:54:13;10.2;;;5.2;;
63690;SDS011;49837;57.280;27.070;2024-02-15T05:55:13;7.9;;;4.8;;
63690;SDS011;49837;57.280;27.070;2024-02-15T05:56:13;9.6;;;4.9;;
63690;SDS011;49837;57.280;27.070;2024-02-15T05:57:13;9.1;;;5.4;;
63690;SDS011;49837;57.280;27.070;2024-02-15T05:58:14;10.5;;;6.2;;
63690;SDS011;49837;57.280;27.070;2024-02-15T05:59:14;9.4;;;5.0;;
63690;SDS011;49837;57.280;27.070;2024-02-15T06:00:15;10.9;;;6.7;;
63690;SDS011;49837;57.280;27.070;2024-02-15T06:01:19;8.2;;;5.4;;
63690;SDS011;49837;57.280;27.070;2024-02-15T06:02:19;9.2;;;5.0;;
63690;SDS011;49837;57.280;27.070;2024-02-15T06:03:19;9.4;;;5.3;;
63690;SDS011;49837;57.280;27.070;2024-02-15T06:04:20;9.8;;;5.2;;
63690;SDS011;49837;57.280;27.070;2024-02-15T06:05:20;9.0;;;5.1;;
63690;SDS011;49837;57.280;27.070;2024-02-15T06:06:21;8.7;;;5.2;;
63690;SDS011;49837;57.280;27.070;2024-02-15T06:07:21;7.3;;;4.7;;
63690;SDS011;49837;57.280;27.070;2024-02-15T06:08:21;8.4;;;4.8;;